sensor_id;sensor_type;location;lat;lon;timestamp;P1;durP1;ratioP1;P2;durP2;ratioP2
32427;SDS011;18882;50.952;4.366;2023-04-24T01:00:40;21.80;;;9.63;;
32427;SDS011;18882;50.952;4.366;2023-04-24T01:03:22;22.27;;;10.50;;
32427;SDS011;18882;50.952;4.366;2023-04-24T01:05:56;23.05;;;10.73;;
32427;SDS011;18882;50.952;4.366;2023-04-24T01:08:23;28.23;;;11.13;;
32427;SDS011;18882;50.952;4.366;2023-04-24T01:10:51;22.88;;;10.15;;
32427;SDS011;18882;50.952;4.366;2023-04-24T01:13:23;25.63;;;9.93;;
32427;SDS011;18882;50.952;4.366;2023-04-24T01:15:58;23.58;;;10.15;;
32427;SDS011;18882;50.952;4.366;2023-04-24T01:18:37;28.40;;;10.15;;
32427;SDS011;18882;50.952;4.366;2023-04-24T01:21:08;23.48;;;10.82;;
32427;SDS011;18882;50.952;4.366;2023-04-24T01:24:01;21.80;;;10.63;;
32427;SDS011;18882;50.952;4.366;2023-04-24T01:26:29;24.35;;;10.25;;
32427;SDS011;18882;50.952;4.366;2023-04-24T01:29:03;18.30;;;9.93;;
32427;SDS011;18882;50.952;4.366;2023-04-24T01:31:32;25.17;;;10.02;;
32427;SDS011;18882;50.952;4.366;2023-04-24T01:33:58;21.83;;;9.23;;
32427;SDS011;18882;50.952;4.366;2023-04-24T01:36:24;23.40;;;10.90;;
32427;SDS011;18882;50.952;4.366;2023-04-24T01:38:52;27.98;;;10.63;;
32427;SDS011;18882;50.952;4.366;2023-04-24T01:41:18;22.67;;;10.52;;
32427;SDS011;18882;50.952;4.366;2023-04-24T01:43:45;25.05;;;10.18;;
32427;SDS011;18882;50.952;4.366;2023-04-24T01:46:11;22.08;;;9.85;;
32427;SDS011;18882;50.952;4.366;2023-04-24T01:48:37;19.30;;;9.43;;
32427;SDS011;18882;50.952;4.366;2023-04-24T01:51:03;22.80;;;9.90;;
32427;SDS011;18882;50.952;4.366;2023-04-24T01:53:31;24.20;;;9.27;;
32427;SDS011;18882;50.952;4.366;2023-04-24T01:56:35;17.58;;;8.88;;
32427;SDS011;18882;50.952;4.366;2023-04-24T01:59:48;28.75;;;8.77;;
32427;SDS011;18882;50.952;4.366;2023-04-24T02:02:30;21.52;;;8.27;;
32427;SDS011;18882;50.952;4.366;2023-04-24T02:05:15;17.00;;;8.45;;
32427;SDS011;18882;50.952;4.366;2023-04-24T02:08:11;14.52;;;7.38;;
32427;SDS011;18882;50.952;4.366;2023-04-24T02:10:45;17.90;;;7.10;;
32427;SDS011;18882;50.952;4.366;2023-04-24T02:13:13;16.13;;;7.90;;
32427;SDS011;18882;50.952;4.366;2023-04-24T02:16:07;14.32;;;6.80;;
32427;SDS011;18882;50.952;4.366;2023-04-24T02:18:44;13.25;;;6.63;;
32427;SDS011;18882;50.952;4.366;2023-04-24T02:21:12;11.45;;;6.72;;
32427;SDS011;18882;50.952;4.366;2023-04-24T02:24:03;14.52;;;6.93;;
32427;SDS011;18882;50.952;4.366;2023-04-24T02:26:29;13.60;;;7.50;;
32427;SDS011;18882;50.952;4.366;2023-04-24T02:29:18;22.75;;;7.90;;
32427;SDS011;18882;50.952;4.366;2023-04-24T02:31:55;20.77;;;8.32;;
32427;SDS011;18882;50.952;4.366;2023-04-24T02:34:21;22.98;;;9.20;;
32427;SDS011;18882;50.952;4.366;2023-04-24T02:36:48;17.48;;;8.02;;
32427;SDS011;18882;50.952;4.366;2023-04-24T02:39:20;17.30;;;8.30;;
32427;SDS011;18882;50.952;4.366;2023-04-24T02:41:46;16.98;;;8.38;;
32427;SDS011;18882;50.952;4.366;2023-04-24T02:44:11;18.80;;;7.88;;
32427;SDS011;18882;50.952;4.366;2023-04-24T02:46:37;16.33;;;8.18;;
32427;SDS011;18882;50.952;4.366;2023-04-24T02:49:20;19.13;;;8.57;;
32427;SDS011;18882;50.952;4.366;2023-04-24T02:51:57;16.55;;;7.90;;
32427;SDS011;18882;50.952;4.366;2023-04-24T02:54:53;17.35;;;8.73;;
32427;SDS011;18882;50.952;4.366;2023-04-24T02:57:23;19.63;;;8.38;;
32427;SDS011;18882;50.952;4.366;2023-04-24T02:59:55;18.80;;;8.57;;
32427;SDS011;18882;50.952;4.366;2023-04-24T03:02:47;20.52;;;9.27;;
32427;SDS011;18882;50.952;4.366;2023-04-24T03:05:30;17.83;;;8.45;;
32427;SDS011;18882;50.952;4.366;2023-04-24T03:07:59;21.38;;;8.82;;
32427;SDS011;18882;50.952;4.366;2023-04-24T03:11:14;18.50;;;9.30;;
32427;SDS011;18882;50.952;4.366;2023-04-24T03:36:58;11.05;;;6.10;;
32427;SDS011;18882;50.952;4.366;2023-04-24T03:39:24;13.00;;;6.35;;
32427;SDS011;18882;50.952;4.366;2023-04-24T03:41:50;13.52;;;6.28;;
32427;SDS011;18882;50.952;4.366;2023-04-24T03:44:15;12.10;;;6.45;;
32427;SDS011;18882;50.952;4.366;2023-04-24T03:46:41;11.85;;;6.50;;
32427;SDS011;18882;50.952;4.366;2023-04-24T03:49:07;12.45;;;5.75;;
32427;SDS011;18882;50.952;4.366;2023-04-24T03:51:32;12.02;;;5.65;;
32427;SDS011;18882;50.952;4.366;2023-04-24T03:53:58;12.32;;;6.18;;
32427;SDS011;18882;50.952;4.366;2023-04-24T03:56:24;18.08;;;6.20;;
32427;SDS011;18882;50.952;4.366;2023-04-24T03:58:49;12.43;;;5.82;;
32427;SDS011;18882;50.952;4.366;2023-04-24T04:01:15;10.40;;;5.50;;
32427;SDS011;18882;50.952;4.366;2023-04-24T04:03:41;14.77;;;5.78;;
32427;SDS011;18882;50.952;4.366;2023-04-24T04:06:07;9.27;;;5.07;;
32427;SDS011;18882;50.952;4.366;2023-04-24T04:08:32;9.93;;;6.20;;
32427;SDS011;18882;50.952;4.366;2023-04-24T04:10:58;10.65;;;5.38;;
32427;SDS011;18882;50.952;4.366;2023-04-24T04:13:24;15.75;;;5.50;;
32427;SDS011;18882;50.952;4.366;2023-04-24T04:15:50;8.73;;;4.95;;
32427;SDS011;18882;50.952;4.366;2023-04-24T04:18:15;12.70;;;5.10;;
32427;SDS011;18882;50.952;4.366;2023-04-24T04:20:41;10.73;;;5.25;;
32427;SDS011;18882;50.952;4.366;2023-04-24T04:23:07;12.07;;;5.03;;
32427;SDS011;18882;50.952;4.366;2023-04-24T04:25:40;7.00;;;4.55;;
32427;SDS011;18882;50.952;4.366;2023-04-24T04:28:06;7.05;;;4.63;;
32427;SDS011;18882;50.952;4.366;2023-04-24T04:30:31;8.25;;;4.53;;
32427;SDS011;18882;50.952;4.366;2023-04-24T04:32:58;7.85;;;5.07;;
32427;SDS011;18882;50.952;4.366;2023-04-24T04:35:24;16.92;;;6.00;;
32427;SDS011;18882;50.952;4.366;2023-04-24T04:37:50;10.77;;;6.10;;
32427;SDS011;18882;50.952;4.366;2023-04-24T04:40:16;11.27;;;5.63;;
32427;SDS011;18882;50.952;4.366;2023-04-24T04:42:42;16.25;;;6.72;;
32427;SDS011;18882;50.952;4.366;2023-04-24T04:45:11;16.60;;;7.20;;
32427;SDS011;18882;50.952;4.366;2023-04-24T04:47:37;18.27;;;7.13;;
32427;SDS011;18882;50.952;4.366;2023-04-24T04:50:03;18.50;;;7.65;;
32427;SDS011;18882;50.952;4.366;2023-04-24T04:52:30;19.88;;;8.38;;
32427;SDS011;18882;50.952;4.366;2023-04-24T04:54:56;15.55;;;8.23;;
32427;SDS011;18882;50.952;4.366;2023-04-24T04:57:22;16.67;;;8.02;;
32427;SDS011;18882;50.952;4.366;2023-04-24T04:59:47;18.05;;;7.53;;
32427;SDS011;18882;50.952;4.366;2023-04-24T05:02:13;19.50;;;8.43;;
32427;SDS011;18882;50.952;4.366;2023-04-24T05:04:39;18.58;;;8.73;;
32427;SDS011;18882;50.952;4.366;2023-04-24T05:07:05;24.10;;;8.02;;
32427;SDS011;18882;50.952;4.366;2023-04-24T05:09:31;19.38;;;7.35;;
32427;SDS011;18882;50.952;4.366;2023-04-24T05:11:56;17.70;;;7.82;;
32427;SDS011;18882;50.952;4.366;2023-04-24T05:14:22;22.23;;;8.45;;
32427;SDS011;18882;50.952;4.366;2023-04-24T05:16:48;16.50;;;8.38;;
32427;SDS011;18882;50.952;4.366;2023-04-24T05:19:14;22.17;;;7.75;;
32427;SDS011;18882;50.952;4.366;2023-04-24T05:21:41;15.20;;;7.63;;
32427;SDS011;18882;50.952;4.366;2023-04-24T05:24:07;20.70;;;8.30;;
32427;SDS011;18882;50.952;4.366;2023-04-24T05:26:33;19.75;;;8.10;;
32427;SDS011;18882;50.952;4.366;2023-04-24T05:29:00;17.40;;;7.72;;
32427;SDS011;18882;50.952;4.366;2023-04-24T05:31:26;19.58;;;7.45;;
32427;SDS011;18882;50.952;4.366;2023-04-24T05:33:52;18.50;;;7.70;;
32427;SDS011;18882;50.952;4.366;2023-04-24T05:36:17;18.10;;;7.90;;
32427;SDS011;18882;50.952;4.366;2023-04-24T05:38:43;21.08;;;8.82;;
32427;SDS011;18882;50.952;4.366;2023-04-24T05:41:09;26.67;;;8.45;;
32427;SDS011;18882;50.952;4.366;2023-04-24T05:43:35;23.35;;;8.45;;
32427;SDS011;18882;50.952;4.366;2023-04-24T05:46:01;19.10;;;8.50;;
32427;SDS011;18882;50.952;4.366;2023-04-24T05:48:26;17.60;;;8.20;;
32427;SDS011;18882;50.952;4.366;2023-04-24T05:50:52;17.60;;;7.38;;
32427;SDS011;18882;50.952;4.366;2023-04-24T05:53:18;24.88;;;8.52;;
32427;SDS011;18882;50.952;4.366;2023-04-24T05:55:53;17.05;;;8.40;;
32427;SDS011;18882;50.952;4.366;2023-04-24T05:58:18;19.25;;;8.60;;
32427;SDS011;18882;50.952;4.366;2023-04-24T06:00:44;19.23;;;8.73;;
32427;SDS011;18882;50.952;4.366;2023-04-24T06:03:11;22.88;;;10.02;;
32427;SDS011;18882;50.952;4.366;2023-04-24T06:05:37;20.83;;;9.02;;
32427;SDS011;18882;50.952;4.366;2023-04-24T06:08:03;24.20;;;9.80;;
32427;SDS011;18882;50.952;4.366;2023-04-24T06:10:29;28.25;;;9.18;;
32427;SDS011;18882;50.952;4.366;2023-04-24T06:12:55;21.55;;;8.85;;
32427;SDS011;18882;50.952;4.366;2023-04-24T06:15:26;24.45;;;10.82;;
32427;SDS011;18882;50.952;4.366;2023-04-24T06:17:56;24.73;;;9.05;;
32427;SDS011;18882;50.952;4.366;2023-04-24T06:20:22;27.75;;;9.82;;
32427;SDS011;18882;50.952;4.366;2023-04-24T06:22:48;21.92;;;9.70;;
32427;SDS011;18882;50.952;4.366;2023-04-24T06:25:21;17.90;;;8.73;;
32427;SDS011;18882;50.952;4.366;2023-04-24T06:28:05;21.67;;;9.73;;
32427;SDS011;18882;50.952;4.366;2023-04-24T06:30:31;27.02;;;10.77;;
32427;SDS011;18882;50.952;4.366;2023-04-24T06:32:56;20.55;;;9.65;;
32427;SDS011;18882;50.952;4.366;2023-04-24T06:35:22;30.20;;;9.88;;
32427;SDS011;18882;50.952;4.366;2023-04-24T06:37:48;23.00;;;9.73;;
32427;SDS011;18882;50.952;4.366;2023-04-24T06:40:14;23.70;;;10.50;;
32427;SDS011;18882;50.952;4.366;2023-04-24T06:42:40;28.95;;;10.98;;
32427;SDS011;18882;50.952;4.366;2023-04-24T06:45:06;29.80;;;11.48;;
32427;SDS011;18882;50.952;4.366;2023-04-24T06:47:38;25.85;;;10.73;;
32427;SDS011;18882;50.952;4.366;2023-04-24T06:50:25;27.50;;;11.07;;
32427;SDS011;18882;50.952;4.366;2023-04-24T06:53:02;26.70;;;10.57;;
32427;SDS011;18882;50.952;4.366;2023-04-24T06:55:27;28.48;;;12.20;;
32427;SDS011;18882;50.952;4.366;2023-04-24T06:57:58;30.55;;;11.57;;
32427;SDS011;18882;50.952;4.366;2023-04-24T07:01:03;33.30;;;12.27;;
32427;SDS011;18882;50.952;4.366;2023-04-24T07:04:26;21.95;;;10.95;;
32427;SDS011;18882;50.952;4.366;2023-04-24T07:11:17;27.80;;;11.60;;
32427;SDS011;18882;50.952;4.366;2023-04-24T07:13:43;29.88;;;11.48;;
32427;SDS011;18882;50.952;4.366;2023-04-24T07:16:09;26.33;;;11.20;;
32427;SDS011;18882;50.952;4.366;2023-04-24T07:18:35;23.60;;;11.02;;
32427;SDS011;18882;50.952;4.366;2023-04-24T07:21:04;25.88;;;11.75;;
32427;SDS011;18882;50.952;4.366;2023-04-24T07:23:40;25.70;;;10.05;;
32427;SDS011;18882;50.952;4.366;2023-04-24T07:26:06;29.23;;;11.48;;
32427;SDS011;18882;50.952;4.366;2023-04-24T07:28:32;32.22;;;10.63;;
32427;SDS011;18882;50.952;4.366;2023-04-24T07:31:14;23.92;;;9.63;;
32427;SDS011;18882;50.952;4.366;2023-04-24T07:37:46;21.83;;;8.05;;
32427;SDS011;18882;50.952;4.366;2023-04-24T07:40:14;22.05;;;8.25;;
32427;SDS011;18882;50.952;4.366;2023-04-24T07:42:40;15.82;;;8.35;;
32427;SDS011;18882;50.952;4.366;2023-04-24T07:45:06;17.85;;;7.38;;
32427;SDS011;18882;50.952;4.366;2023-04-24T07:47:32;25.13;;;8.13;;
32427;SDS011;18882;50.952;4.366;2023-04-24T07:49:59;16.75;;;7.15;;
32427;SDS011;18882;50.952;4.366;2023-04-24T07:52:24;17.00;;;6.95;;
32427;SDS011;18882;50.952;4.366;2023-04-24T07:54:50;22.70;;;6.57;;
32427;SDS011;18882;50.952;4.366;2023-04-24T07:57:17;20.25;;;6.90;;
32427;SDS011;18882;50.952;4.366;2023-04-24T07:59:46;18.77;;;6.80;;
32427;SDS011;18882;50.952;4.366;2023-04-24T08:02:18;20.02;;;6.65;;
32427;SDS011;18882;50.952;4.366;2023-04-24T08:04:44;16.40;;;5.65;;
32427;SDS011;18882;50.952;4.366;2023-04-24T08:07:10;25.65;;;7.75;;
32427;SDS011;18882;50.952;4.366;2023-04-24T08:09:37;15.88;;;6.82;;
32427;SDS011;18882;50.952;4.366;2023-04-24T08:12:03;22.63;;;6.72;;
32427;SDS011;18882;50.952;4.366;2023-04-24T08:17:40;15.18;;;6.00;;
32427;SDS011;18882;50.952;4.366;2023-04-24T08:20:05;13.85;;;6.47;;
32427;SDS011;18882;50.952;4.366;2023-04-24T08:22:35;19.02;;;6.65;;
32427;SDS011;18882;50.952;4.366;2023-04-24T08:25:01;14.55;;;5.78;;
32427;SDS011;18882;50.952;4.366;2023-04-24T08:27:27;16.50;;;5.75;;
32427;SDS011;18882;50.952;4.366;2023-04-24T08:29:55;12.02;;;5.60;;
32427;SDS011;18882;50.952;4.366;2023-04-24T08:32:22;15.65;;;4.90;;
32427;SDS011;18882;50.952;4.366;2023-04-24T08:44:58;17.63;;;4.43;;
32427;SDS011;18882;50.952;4.366;2023-04-24T08:51:03;10.55;;;4.38;;
32427;SDS011;18882;50.952;4.366;2023-04-24T08:53:32;11.38;;;4.10;;
32427;SDS011;18882;50.952;4.366;2023-04-24T08:56:04;14.15;;;4.38;;
32427;SDS011;18882;50.952;4.366;2023-04-24T08:59:28;8.52;;;4.22;;
32427;SDS011;18882;50.952;4.366;2023-04-24T09:02:41;15.50;;;3.95;;
32427;SDS011;18882;50.952;4.366;2023-04-24T09:12:16;14.88;;;4.35;;
32427;SDS011;18882;50.952;4.366;2023-04-24T09:15:39;9.82;;;3.80;;
32427;SDS011;18882;50.952;4.366;2023-04-24T10:07:32;9.15;;;2.78;;
32427;SDS011;18882;50.952;4.366;2023-04-24T10:10:38;8.00;;;3.05;;
32427;SDS011;18882;50.952;4.366;2023-04-24T10:20:16;6.72;;;2.65;;
32427;SDS011;18882;50.952;4.366;2023-04-24T10:30:20;7.95;;;2.55;;
32427;SDS011;18882;50.952;4.366;2023-04-24T10:33:21;7.70;;;2.25;;
32427;SDS011;18882;50.952;4.366;2023-04-24T10:35:48;12.48;;;2.70;;
32427;SDS011;18882;50.952;4.366;2023-04-24T10:38:17;6.30;;;3.00;;
32427;SDS011;18882;50.952;4.366;2023-04-24T10:47:40;4.18;;;2.33;;
32427;SDS011;18882;50.952;4.366;2023-04-24T10:50:09;2.97;;;1.98;;
32427;SDS011;18882;50.952;4.366;2023-04-24T10:52:48;6.80;;;2.17;;
32427;SDS011;18882;50.952;4.366;2023-04-24T10:55:16;7.57;;;2.13;;
32427;SDS011;18882;50.952;4.366;2023-04-24T10:58:02;6.93;;;2.13;;
32427;SDS011;18882;50.952;4.366;2023-04-24T11:00:29;8.45;;;2.45;;
32427;SDS011;18882;50.952;4.366;2023-04-24T11:19:27;4.72;;;2.40;;
32427;SDS011;18882;50.952;4.366;2023-04-24T11:37:05;6.05;;;2.67;;
32427;SDS011;18882;50.952;4.366;2023-04-24T11:39:36;5.95;;;2.20;;
32427;SDS011;18882;50.952;4.366;2023-04-24T11:51:31;11.50;;;3.00;;
32427;SDS011;18882;50.952;4.366;2023-04-24T11:54:07;3.53;;;2.22;;
32427;SDS011;18882;50.952;4.366;2023-04-24T11:56:33;7.22;;;2.47;;
32427;SDS011;18882;50.952;4.366;2023-04-24T11:58:58;5.15;;;3.08;;
32427;SDS011;18882;50.952;4.366;2023-04-24T12:01:24;7.35;;;3.08;;
32427;SDS011;18882;50.952;4.366;2023-04-24T12:03:50;4.63;;;2.78;;
32427;SDS011;18882;50.952;4.366;2023-04-24T12:06:24;9.13;;;2.30;;
32427;SDS011;18882;50.952;4.366;2023-04-24T12:08:50;5.97;;;2.70;;
32427;SDS011;18882;50.952;4.366;2023-04-24T12:11:19;6.13;;;2.50;;
32427;SDS011;18882;50.952;4.366;2023-04-24T12:13:45;6.70;;;2.90;;
32427;SDS011;18882;50.952;4.366;2023-04-24T12:16:11;5.30;;;2.70;;
32427;SDS011;18882;50.952;4.366;2023-04-24T12:18:41;8.45;;;2.92;;
32427;SDS011;18882;50.952;4.366;2023-04-24T12:21:15;4.18;;;2.75;;
32427;SDS011;18882;50.952;4.366;2023-04-24T12:23:45;4.13;;;2.83;;
32427;SDS011;18882;50.952;4.366;2023-04-24T12:26:18;9.45;;;2.72;;
32427;SDS011;18882;50.952;4.366;2023-04-24T12:28:46;7.53;;;2.90;;
32427;SDS011;18882;50.952;4.366;2023-04-24T12:31:14;5.75;;;2.88;;
32427;SDS011;18882;50.952;4.366;2023-04-24T12:33:40;4.60;;;2.70;;
32427;SDS011;18882;50.952;4.366;2023-04-24T12:36:06;7.43;;;2.72;;
32427;SDS011;18882;50.952;4.366;2023-04-24T12:38:35;4.13;;;2.50;;
32427;SDS011;18882;50.952;4.366;2023-04-24T12:41:06;4.88;;;2.25;;
32427;SDS011;18882;50.952;4.366;2023-04-24T12:43:56;6.68;;;2.33;;
32427;SDS011;18882;50.952;4.366;2023-04-24T12:46:58;10.07;;;2.67;;
32427;SDS011;18882;50.952;4.366;2023-04-24T12:53:00;3.53;;;2.20;;
32427;SDS011;18882;50.952;4.366;2023-04-24T13:02:21;5.55;;;1.90;;
32427;SDS011;18882;50.952;4.366;2023-04-24T13:04:47;4.43;;;1.70;;
32427;SDS011;18882;50.952;4.366;2023-04-24T13:07:13;2.60;;;1.77;;
32427;SDS011;18882;50.952;4.366;2023-04-24T13:09:40;3.35;;;1.50;;
32427;SDS011;18882;50.952;4.366;2023-04-24T13:12:07;4.00;;;1.63;;
32427;SDS011;18882;50.952;4.366;2023-04-24T13:14:33;2.05;;;1.35;;
32427;SDS011;18882;50.952;4.366;2023-04-24T13:16:59;3.08;;;1.65;;
32427;SDS011;18882;50.952;4.366;2023-04-24T13:29:34;6.82;;;1.75;;
32427;SDS011;18882;50.952;4.366;2023-04-24T13:35:06;3.25;;;1.23;;
32427;SDS011;18882;50.952;4.366;2023-04-24T13:37:33;6.05;;;1.70;;
32427;SDS011;18882;50.952;4.366;2023-04-24T13:50:13;6.10;;;1.20;;
32427;SDS011;18882;50.952;4.366;2023-04-24T13:52:48;3.38;;;1.23;;
32427;SDS011;18882;50.952;4.366;2023-04-24T14:04:50;2.67;;;0.73;;
32427;SDS011;18882;50.952;4.366;2023-04-24T14:07:15;1.90;;;1.00;;
32427;SDS011;18882;50.952;4.366;2023-04-24T14:09:41;2.22;;;0.70;;
32427;SDS011;18882;50.952;4.366;2023-04-24T14:12:07;1.08;;;0.82;;
32427;SDS011;18882;50.952;4.366;2023-04-24T14:14:32;3.22;;;1.00;;
32427;SDS011;18882;50.952;4.366;2023-04-24T14:17:07;4.25;;;1.30;;
32427;SDS011;18882;50.952;4.366;2023-04-24T14:19:58;2.70;;;1.00;;
32427;SDS011;18882;50.952;4.366;2023-04-24T14:22:25;1.67;;;0.77;;
32427;SDS011;18882;50.952;4.366;2023-04-24T14:24:51;1.70;;;0.75;;
32427;SDS011;18882;50.952;4.366;2023-04-24T14:27:17;3.55;;;0.80;;
32427;SDS011;18882;50.952;4.366;2023-04-24T14:29:42;2.22;;;1.10;;
32427;SDS011;18882;50.952;4.366;2023-04-24T14:32:10;5.88;;;1.88;;
32427;SDS011;18882;50.952;4.366;2023-04-24T14:34:35;6.57;;;2.53;;
32427;SDS011;18882;50.952;4.366;2023-04-24T14:37:01;4.38;;;2.53;;
32427;SDS011;18882;50.952;4.366;2023-04-24T14:39:28;5.80;;;2.63;;
32427;SDS011;18882;50.952;4.366;2023-04-24T14:41:54;7.40;;;1.88;;
32427;SDS011;18882;50.952;4.366;2023-04-24T14:44:20;7.32;;;2.15;;
32427;SDS011;18882;50.952;4.366;2023-04-24T14:46:49;2.58;;;1.30;;
32427;SDS011;18882;50.952;4.366;2023-04-24T14:53:35;1.15;;;0.80;;
32427;SDS011;18882;50.952;4.366;2023-04-24T15:03:07;2.03;;;0.73;;
32427;SDS011;18882;50.952;4.366;2023-04-24T15:19:40;4.18;;;1.10;;
32427;SDS011;18882;50.952;4.366;2023-04-24T15:22:06;5.72;;;1.65;;
32427;SDS011;18882;50.952;4.366;2023-04-24T15:24:31;2.17;;;1.70;;
32427;SDS011;18882;50.952;4.366;2023-04-24T15:26:58;2.63;;;1.15;;
32427;SDS011;18882;50.952;4.366;2023-04-24T15:29:24;4.28;;;1.20;;
32427;SDS011;18882;50.952;4.366;2023-04-24T15:31:51;4.88;;;1.38;;
32427;SDS011;18882;50.952;4.366;2023-04-24T15:34:16;3.72;;;1.38;;
32427;SDS011;18882;50.952;4.366;2023-04-24T15:36:42;3.45;;;1.50;;
32427;SDS011;18882;50.952;4.366;2023-04-24T15:39:08;6.70;;;1.92;;
32427;SDS011;18882;50.952;4.366;2023-04-24T16:04:57;2.17;;;1.25;;
32427;SDS011;18882;50.952;4.366;2023-04-24T16:08:32;2.95;;;1.30;;
32427;SDS011;18882;50.952;4.366;2023-04-24T16:11:58;4.15;;;2.33;;
32427;SDS011;18882;50.952;4.366;2023-04-24T16:15:29;4.45;;;3.20;;
32427;SDS011;18882;50.952;4.366;2023-04-24T16:18:29;7.45;;;2.33;;
32427;SDS011;18882;50.952;4.366;2023-04-24T16:21:05;4.88;;;2.40;;
32427;SDS011;18882;50.952;4.366;2023-04-24T16:23:53;5.03;;;2.33;;
32427;SDS011;18882;50.952;4.366;2023-04-24T16:26:31;4.45;;;2.05;;
32427;SDS011;18882;50.952;4.366;2023-04-24T16:29:17;5.68;;;2.65;;
32427;SDS011;18882;50.952;4.366;2023-04-24T16:32:52;4.80;;;2.63;;
32427;SDS011;18882;50.952;4.366;2023-04-24T16:35:20;4.70;;;2.30;;
32427;SDS011;18882;50.952;4.366;2023-04-24T16:39:02;2.83;;;1.58;;
32427;SDS011;18882;50.952;4.366;2023-04-24T16:42:39;4.05;;;2.38;;
32427;SDS011;18882;50.952;4.366;2023-04-24T16:45:37;5.95;;;1.83;;
32427;SDS011;18882;50.952;4.366;2023-04-24T16:48:46;3.13;;;2.20;;
32427;SDS011;18882;50.952;4.366;2023-04-24T16:51:25;3.85;;;1.88;;
32427;SDS011;18882;50.952;4.366;2023-04-24T16:54:29;4.45;;;2.47;;
32427;SDS011;18882;50.952;4.366;2023-04-24T16:56:58;7.57;;;2.50;;
32427;SDS011;18882;50.952;4.366;2023-04-24T17:00:21;8.00;;;2.42;;
32427;SDS011;18882;50.952;4.366;2023-04-24T17:02:53;9.52;;;2.38;;
32427;SDS011;18882;50.952;4.366;2023-04-24T17:05:48;3.55;;;1.65;;
32427;SDS011;18882;50.952;4.366;2023-04-24T17:11:48;1.55;;;1.45;;
32427;SDS011;18882;50.952;4.366;2023-04-24T17:14:40;1.25;;;0.93;;
32427;SDS011;18882;50.952;4.366;2023-04-24T17:20:14;2.83;;;1.52;;
32427;SDS011;18882;50.952;4.366;2023-04-24T17:23:05;5.57;;;1.90;;
32427;SDS011;18882;50.952;4.366;2023-04-24T17:26:02;6.03;;;2.00;;
32427;SDS011;18882;50.952;4.366;2023-04-24T17:28:31;5.20;;;1.73;;
32427;SDS011;18882;50.952;4.366;2023-04-24T17:31:33;3.03;;;1.65;;
32427;SDS011;18882;50.952;4.366;2023-04-24T17:34:21;3.38;;;2.08;;
32427;SDS011;18882;50.952;4.366;2023-04-24T17:36:47;1.95;;;1.30;;
32427;SDS011;18882;50.952;4.366;2023-04-24T17:39:33;1.90;;;1.38;;
32427;SDS011;18882;50.952;4.366;2023-04-24T17:41:58;3.20;;;1.30;;
32427;SDS011;18882;50.952;4.366;2023-04-24T17:44:44;5.05;;;1.33;;
32427;SDS011;18882;50.952;4.366;2023-04-24T17:47:35;2.35;;;1.50;;
32427;SDS011;18882;50.952;4.366;2023-04-24T17:50:02;2.42;;;1.40;;
32427;SDS011;18882;50.952;4.366;2023-04-24T17:52:31;9.95;;;1.50;;
32427;SDS011;18882;50.952;4.366;2023-04-24T17:55:19;5.63;;;1.48;;
32427;SDS011;18882;50.952;4.366;2023-04-24T17:58:33;4.85;;;1.45;;
32427;SDS011;18882;50.952;4.366;2023-04-24T18:01:16;4.13;;;1.40;;
32427;SDS011;18882;50.952;4.366;2023-04-24T18:04:08;5.70;;;1.63;;
32427;SDS011;18882;50.952;4.366;2023-04-24T18:06:34;5.00;;;2.33;;
32427;SDS011;18882;50.952;4.366;2023-04-24T18:09:00;2.85;;;1.90;;
32427;SDS011;18882;50.952;4.366;2023-04-24T18:11:31;5.53;;;1.90;;
32427;SDS011;18882;50.952;4.366;2023-04-24T18:13:58;5.25;;;2.13;;
32427;SDS011;18882;50.952;4.366;2023-04-24T18:16:24;6.50;;;2.00;;
32427;SDS011;18882;50.952;4.366;2023-04-24T18:19:10;9.45;;;2.35;;
32427;SDS011;18882;50.952;4.366;2023-04-24T18:21:57;9.65;;;2.15;;
32427;SDS011;18882;50.952;4.366;2023-04-24T18:24:42;5.25;;;2.15;;
32427;SDS011;18882;50.952;4.366;2023-04-24T18:27:28;3.85;;;2.03;;
32427;SDS011;18882;50.952;4.366;2023-04-24T18:30:28;5.57;;;1.58;;
32427;SDS011;18882;50.952;4.366;2023-04-24T18:32:57;5.45;;;1.75;;
32427;SDS011;18882;50.952;4.366;2023-04-24T18:36:09;6.80;;;2.20;;
32427;SDS011;18882;50.952;4.366;2023-04-24T18:38:40;6.18;;;2.33;;
32427;SDS011;18882;50.952;4.366;2023-04-24T18:41:33;6.60;;;2.88;;
32427;SDS011;18882;50.952;4.366;2023-04-24T18:44:03;8.02;;;2.05;;
32427;SDS011;18882;50.952;4.366;2023-04-24T18:49:34;10.32;;;2.70;;
32427;SDS011;18882;50.952;4.366;2023-04-24T18:52:01;8.10;;;2.80;;
32427;SDS011;18882;50.952;4.366;2023-04-24T18:54:29;4.55;;;3.17;;
32427;SDS011;18882;50.952;4.366;2023-04-24T18:57:13;6.57;;;2.78;;
32427;SDS011;18882;50.952;4.366;2023-04-24T18:59:44;8.07;;;2.45;;
32427;SDS011;18882;50.952;4.366;2023-04-24T19:02:12;8.48;;;2.63;;
32427;SDS011;18882;50.952;4.366;2023-04-24T19:05:07;8.25;;;2.55;;
32427;SDS011;18882;50.952;4.366;2023-04-24T19:07:53;11.75;;;2.58;;
32427;SDS011;18882;50.952;4.366;2023-04-24T19:11:05;10.48;;;2.65;;
32427;SDS011;18882;50.952;4.366;2023-04-24T19:14:18;6.15;;;2.40;;
32427;SDS011;18882;50.952;4.366;2023-04-24T19:16:50;9.35;;;3.08;;
32427;SDS011;18882;50.952;4.366;2023-04-24T19:19:54;11.35;;;3.67;;
32427;SDS011;18882;50.952;4.366;2023-04-24T19:22:23;6.22;;;2.90;;
32427;SDS011;18882;50.952;4.366;2023-04-24T19:24:58;12.15;;;2.33;;
32427;SDS011;18882;50.952;4.366;2023-04-24T19:27:59;6.57;;;2.45;;
32427;SDS011;18882;50.952;4.366;2023-04-24T19:30:46;5.63;;;2.17;;
32427;SDS011;18882;50.952;4.366;2023-04-24T19:33:14;6.30;;;2.25;;
32427;SDS011;18882;50.952;4.366;2023-04-24T19:36:23;6.80;;;2.28;;
32427;SDS011;18882;50.952;4.366;2023-04-24T19:38:58;6.10;;;2.45;;
32427;SDS011;18882;50.952;4.366;2023-04-24T19:41:43;10.82;;;2.40;;
32427;SDS011;18882;50.952;4.366;2023-04-24T19:44:17;6.00;;;2.17;;
32427;SDS011;18882;50.952;4.366;2023-04-24T19:47:03;5.63;;;2.30;;
32427;SDS011;18882;50.952;4.366;2023-04-24T19:49:51;8.45;;;2.95;;
32427;SDS011;18882;50.952;4.366;2023-04-24T19:52:26;8.65;;;2.75;;
32427;SDS011;18882;50.952;4.366;2023-04-24T19:55:07;10.05;;;2.80;;
32427;SDS011;18882;50.952;4.366;2023-04-24T19:57:33;10.85;;;2.63;;
32427;SDS011;18882;50.952;4.366;2023-04-24T20:00:19;7.38;;;2.85;;
32427;SDS011;18882;50.952;4.366;2023-04-24T20:03:05;8.00;;;2.33;;
32427;SDS011;18882;50.952;4.366;2023-04-24T20:06:38;10.48;;;2.38;;
32427;SDS011;18882;50.952;4.366;2023-04-24T20:09:05;6.50;;;2.90;;
32427;SDS011;18882;50.952;4.366;2023-04-24T20:14:19;7.03;;;2.38;;
32427;SDS011;18882;50.952;4.366;2023-04-24T20:16:53;6.68;;;2.78;;
32427;SDS011;18882;50.952;4.366;2023-04-24T20:19:28;6.68;;;2.40;;
32427;SDS011;18882;50.952;4.366;2023-04-24T20:21:55;5.75;;;2.78;;
32427;SDS011;18882;50.952;4.366;2023-04-24T20:24:21;7.20;;;3.17;;
32427;SDS011;18882;50.952;4.366;2023-04-24T20:27:15;5.72;;;3.20;;
32427;SDS011;18882;50.952;4.366;2023-04-24T20:30:02;13.43;;;2.92;;
32427;SDS011;18882;50.952;4.366;2023-04-24T20:32:33;12.10;;;3.38;;
32427;SDS011;18882;50.952;4.366;2023-04-24T20:35:02;5.53;;;3.30;;
32427;SDS011;18882;50.952;4.366;2023-04-24T20:37:28;15.10;;;3.75;;
32427;SDS011;18882;50.952;4.366;2023-04-24T20:40:02;10.10;;;3.65;;
32427;SDS011;18882;50.952;4.366;2023-04-24T20:42:32;10.52;;;3.58;;
32427;SDS011;18882;50.952;4.366;2023-04-24T20:45:17;10.55;;;4.00;;
32427;SDS011;18882;50.952;4.366;2023-04-24T20:47:43;13.25;;;4.60;;
32427;SDS011;18882;50.952;4.366;2023-04-24T20:50:13;12.63;;;3.55;;
32427;SDS011;18882;50.952;4.366;2023-04-24T20:52:50;11.80;;;3.67;;
32427;SDS011;18882;50.952;4.366;2023-04-24T20:55:25;10.80;;;3.75;;
32427;SDS011;18882;50.952;4.366;2023-04-24T20:57:51;5.38;;;3.08;;